Time;durP1;ratioP1;P1;durP2;ratioP2;P2;SDS_P1;SDS_P2;PMS_P1;PMS_P2;Temp;Humidity;BMP_temperature;BMP_pressure;BME280_temperature;BME280_humidity;BME280_pressure;Samples;Min_cycle;Max_cycle;Signal;HPM_P1;HPM_P2
2023/05/18 00:00:43;;;;;;;4.63;1.42;;;15.20;99.90;;;;;;5080460;28;20279;-85
2023/05/18 00:03:14;;;;;;;2.42;1.10;;;15.20;99.90;;;;;;5074541;28;20203;-87
2023/05/18 00:05:48;;;;;;;3.78;1.30;;;15.20;99.90;;;;;;5074096;28;20203;-86
2023/05/18 00:08:19;;;;;;;4.13;1.10;;;15.10;99.90;;;;;;5073848;28;20280;-85
2023/05/18 00:10:50;;;;;;;5.95;1.50;;;15.10;99.90;;;;;;5073940;28;20215;-85
2023/05/18 00:13:21;;;;;;;5.38;1.48;;;15.10;99.90;;;;;;5073822;28;20219;-85
2023/05/18 00:15:55;;;;;;;5.97;1.58;;;15.20;99.90;;;;;;5073591;28;20192;-85
2023/05/18 00:18:27;;;;;;;2.33;1.13;;;15.40;99.90;;;;;;5073907;28;20199;-85
2023/05/18 00:21:03;;;;;;;6.78;1.10;;;15.50;99.90;;;;;;5074231;28;20208;-85
2023/05/18 00:23:34;;;;;;;3.03;1.00;;;15.60;99.90;;;;;;5073956;28;20204;-86
2023/05/18 00:26:06;;;;;;;3.03;1.20;;;15.60;99.90;;;;;;5073433;28;20240;-86
2023/05/18 00:28:37;;;;;;;3.22;1.08;;;15.60;99.90;;;;;;5073127;28;20199;-87
2023/05/18 00:31:08;;;;;;;3.40;1.50;;;15.60;99.90;;;;;;5073428;28;20211;-87
2023/05/18 00:33:39;;;;;;;2.38;0.98;;;15.70;99.90;;;;;;5073617;28;20234;-87
2023/05/18 00:36:12;;;;;;;4.88;1.30;;;15.70;99.90;;;;;;5073494;28;20191;-86
2023/05/18 00:38:44;;;;;;;3.47;1.10;;;15.70;99.90;;;;;;5076525;28;20590;-86
2023/05/18 00:41:18;;;;;;;3.65;1.23;;;15.50;99.90;;;;;;5073578;28;20200;-85
2023/05/18 00:43:49;;;;;;;4.45;1.00;;;15.60;99.90;;;;;;5073575;28;20750;-87
2023/05/18 00:46:20;;;;;;;3.08;1.17;;;15.80;99.90;;;;;;5073490;28;20203;-86
2023/05/18 00:48:55;;;;;;;6.50;1.23;;;15.90;99.90;;;;;;5074354;28;20196;-86
2023/05/18 00:51:30;;;;;;;2.97;0.93;;;16.00;99.90;;;;;;5074331;28;20199;-86
2023/05/18 00:54:03;;;;;;;2.88;0.82;;;16.00;99.90;;;;;;5072805;28;20587;-85
2023/05/18 00:59:18;;;;;;;5.28;1.40;;;16.10;99.90;;;;;;5076029;28;20750;-86
2023/05/18 01:01:50;;;;;;;3.20;1.00;;;16.20;99.90;;;;;;5072596;28;20206;-86
2023/05/18 01:04:23;;;;;;;5.93;1.13;;;16.40;99.90;;;;;;5072752;28;20219;-86
2023/05/18 01:07:05;;;;;;;6.45;1.35;;;16.30;99.90;;;;;;5072357;28;20206;-88
2023/05/18 01:09:36;;;;;;;3.70;1.20;;;16.50;99.90;;;;;;5072649;28;20196;-85
2023/05/18 01:12:23;;;;;;;2.03;0.90;;;16.60;99.90;;;;;;5072774;28;20217;-86
2023/05/18 01:15:03;;;;;;;2.72;0.90;;;16.70;99.90;;;;;;5075873;28;20196;-86
2023/05/18 01:17:41;;;;;;;6.00;1.52;;;16.80;99.90;;;;;;5056912;28;20205;-86
2023/05/18 01:20:29;;;;;;;2.88;0.95;;;16.90;99.90;;;;;;5064715;28;20206;-86
2023/05/18 01:23:20;;;;;;;2.38;0.88;;;16.90;99.90;;;;;;5072602;28;20659;-86
2023/05/18 01:26:11;;;;;;;2.05;0.80;;;17.00;99.90;;;;;;5072840;28;20196;-87
2023/05/18 01:28:47;;;;;;;1.20;0.70;;;17.00;99.90;;;;;;5069489;28;20666;-85
2023/05/18 01:31:18;;;;;;;2.22;0.80;;;17.00;99.90;;;;;;5065619;28;20192;-85
2023/05/18 01:33:50;;;;;;;5.65;0.93;;;17.00;99.90;;;;;;5068205;28;20295;-86
2023/05/18 01:36:22;;;;;;;4.28;1.00;;;17.00;99.90;;;;;;5075410;28;20207;-85
2023/05/18 01:39:00;;;;;;;3.75;1.00;;;17.00;99.90;;;;;;5072085;28;20282;-86
2023/05/18 01:41:35;;;;;;;1.50;0.75;;;17.00;99.90;;;;;;5063289;28;20699;-84
2023/05/18 01:44:14;;;;;;;2.08;0.93;;;17.00;99.90;;;;;;5072678;28;20561;-84
2023/05/18 01:46:56;;;;;;;2.38;0.70;;;16.90;99.90;;;;;;5066683;28;20208;-83
2023/05/18 01:49:33;;;;;;;3.80;0.60;;;17.00;99.90;;;;;;5052960;28;20204;-84
2023/05/18 01:52:09;;;;;;;2.45;0.70;;;17.10;99.90;;;;;;5052198;28;20528;-84
2023/05/18 01:54:43;;;;;;;4.25;0.80;;;17.20;99.90;;;;;;5056825;28;20223;-86
2023/05/18 01:57:14;;;;;;;2.15;0.80;;;17.30;99.90;;;;;;5066169;28;20196;-86
2023/05/18 01:59:48;;;;;;;2.88;0.80;;;17.30;99.90;;;;;;5072216;28;20290;-85
2023/05/18 02:02:20;;;;;;;2.05;0.70;;;17.30;99.90;;;;;;5071737;28;20208;-87
2023/05/18 02:04:51;;;;;;;7.53;0.90;;;17.20;99.90;;;;;;5072107;28;20196;-86
2023/05/18 02:07:22;;;;;;;1.67;0.77;;;17.20;99.90;;;;;;5072289;28;20208;-86
2023/05/18 02:09:54;;;;;;;3.17;0.80;;;17.10;99.90;;;;;;5072242;28;20200;-86
2023/05/18 02:12:26;;;;;;;3.80;0.88;;;17.10;99.90;;;;;;5067405;28;20249;-86
2023/05/18 02:15:04;;;;;;;3.50;0.80;;;16.90;99.90;;;;;;5072908;28;20211;-87
2023/05/18 02:17:37;;;;;;;2.90;0.68;;;17.10;99.90;;;;;;5072054;28;20231;-85
2023/05/18 02:20:09;;;;;;;3.25;0.80;;;17.20;99.90;;;;;;5071833;28;20192;-86
2023/05/18 02:22:41;;;;;;;2.20;0.52;;;17.20;99.90;;;;;;5071850;28;20200;-86
2023/05/18 02:25:14;;;;;;;4.72;0.93;;;17.30;99.90;;;;;;5072081;28;20211;-86
2023/05/18 02:27:45;;;;;;;2.20;0.70;;;17.40;99.90;;;;;;5072496;28;20706;-86
2023/05/18 02:30:23;;;;;;;1.98;0.82;;;17.60;99.90;;;;;;5070152;28;20562;-85
2023/05/18 02:32:58;;;;;;;8.75;1.30;;;17.70;99.90;;;;;;5074651;28;20196;-86
2023/05/18 02:35:29;;;;;;;1.95;0.70;;;17.90;99.90;;;;;;5079313;28;20210;-87
2023/05/18 02:38:02;;;;;;;3.10;0.68;;;17.90;99.90;;;;;;5074105;28;20219;-85
2023/05/18 02:40:33;;;;;;;2.28;0.73;;;18.00;99.90;;;;;;5070611;28;20195;-85
2023/05/18 02:43:04;;;;;;;3.15;0.75;;;18.10;99.90;;;;;;5071983;28;20670;-85
2023/05/18 02:45:37;;;;;;;7.57;1.50;;;18.10;99.90;;;;;;5058239;28;20208;-84
2023/05/18 02:48:09;;;;;;;3.45;0.90;;;18.00;99.90;;;;;;5071432;28;20191;-86
2023/05/18 02:50:42;;;;;;;1.73;0.60;;;18.00;99.90;;;;;;5072822;28;20206;-85
2023/05/18 02:53:14;;;;;;;3.80;1.02;;;17.90;99.90;;;;;;5071626;28;20194;-84
2023/05/18 02:55:45;;;;;;;3.92;0.73;;;18.00;99.90;;;;;;5072464;28;20192;-83
2023/05/18 02:58:16;;;;;;;3.05;0.60;;;18.00;99.90;;;;;;5069575;28;20535;-84
2023/05/18 03:00:53;;;;;;;4.03;0.98;;;18.10;99.90;;;;;;5072507;28;20200;-84
2023/05/18 03:03:25;;;;;;;2.60;0.70;;;18.10;99.90;;;;;;5076035;28;20215;-85
2023/05/18 03:05:57;;;;;;;1.23;0.60;;;18.10;99.90;;;;;;5074329;28;20199;-86
2023/05/18 03:08:31;;;;;;;1.63;0.55;;;18.10;99.90;;;;;;5073382;28;20242;-86
2023/05/18 03:11:03;;;;;;;3.30;0.93;;;18.00;99.90;;;;;;5071107;28;20195;-86
2023/05/18 03:13:35;;;;;;;1.92;0.60;;;17.90;99.90;;;;;;5072590;28;20302;-86
2023/05/18 03:16:09;;;;;;;4.55;1.17;;;17.80;99.90;;;;;;5074120;28;20222;-86
2023/05/18 03:18:40;;;;;;;1.75;0.80;;;17.70;99.90;;;;;;5073394;28;20303;-86
2023/05/18 03:21:12;;;;;;;2.78;0.80;;;17.50;99.90;;;;;;5071649;28;20196;-85
2023/05/18 03:23:45;;;;;;;2.10;0.70;;;17.40;99.90;;;;;;5058185;28;20214;-85
2023/05/18 03:26:17;;;;;;;6.43;1.90;;;17.40;99.90;;;;;;5064660;28;20695;-85
2023/05/18 03:28:48;;;;;;;2.50;1.00;;;17.50;99.90;;;;;;5072688;28;20180;-85
2023/05/18 03:31:22;;;;;;;4.13;0.90;;;17.50;99.90;;;;;;5073514;28;20192;-86
2023/05/18 03:33:56;;;;;;;4.00;0.93;;;17.40;99.90;;;;;;5073770;28;20255;-85
2023/05/18 03:36:28;;;;;;;4.13;0.90;;;17.40;99.90;;;;;;5073843;28;20206;-87
2023/05/18 03:39:00;;;;;;;4.78;1.30;;;17.40;99.90;;;;;;5080211;28;20283;-86
2023/05/18 03:41:33;;;;;;;2.92;0.85;;;17.40;99.90;;;;;;5075308;28;20671;-86
2023/05/18 03:44:04;;;;;;;5.68;0.90;;;17.40;99.90;;;;;;5074207;28;20553;-86
2023/05/18 03:46:48;;;;;;;3.58;0.90;;;17.50;99.90;;;;;;5075915;28;20212;-86
2023/05/18 03:49:24;;;;;;;1.25;0.70;;;17.50;99.90;;;;;;5078160;28;22411;-86
2023/05/18 03:51:57;;;;;;;3.75;1.02;;;17.50;99.90;;;;;;5072745;28;20206;-86
2023/05/18 03:54:29;;;;;;;3.13;0.90;;;17.50;99.90;;;;;;5085150;28;20250;-87
2023/05/18 03:57:03;;;;;;;2.13;0.77;;;17.50;99.90;;;;;;5086905;28;20283;-87
2023/05/18 04:02:21;;;;;;;2.83;0.90;;;17.50;99.90;;;;;;5084491;28;20192;-85
2023/05/18 04:04:52;;;;;;;2.75;0.70;;;17.60;99.90;;;;;;5074437;28;20568;-86
2023/05/18 04:07:26;;;;;;;4.15;0.70;;;17.60;99.90;;;;;;5076896;28;20195;-86
2023/05/18 04:10:01;;;;;;;2.42;0.90;;;17.60;99.90;;;;;;5076271;28;20196;-85
2023/05/18 04:12:32;;;;;;;6.43;1.10;;;17.60;99.90;;;;;;5076198;28;20187;-85
2023/05/18 04:15:03;;;;;;;3.85;0.93;;;17.60;99.90;;;;;;5076113;28;20578;-85
2023/05/18 04:17:38;;;;;;;4.28;0.95;;;17.70;99.90;;;;;;5075924;28;20210;-85
2023/05/18 04:20:13;;;;;;;5.63;0.80;;;17.70;99.90;;;;;;5075841;28;20223;-85
2023/05/18 04:22:45;;;;;;;3.05;0.75;;;17.70;99.90;;;;;;5075510;28;20203;-86
2023/05/18 04:25:17;;;;;;;4.65;0.90;;;17.70;99.90;;;;;;5086473;28;20246;-85
2023/05/18 04:27:49;;;;;;;2.38;0.60;;;17.60;99.90;;;;;;5098818;28;20219;-86
2023/05/18 04:30:23;;;;;;;4.72;0.70;;;17.60;99.90;;;;;;5088168;28;20196;-87
2023/05/18 04:32:56;;;;;;;3.28;0.93;;;17.60;99.90;;;;;;5096665;28;20210;-86
2023/05/18 04:35:28;;;;;;;1.88;0.60;;;17.70;99.90;;;;;;5097132;28;20295;-85
2023/05/18 04:38:01;;;;;;;2.17;0.77;;;17.60;99.90;;;;;;5097308;28;20215;-87
2023/05/18 04:40:36;;;;;;;3.40;0.73;;;17.70;99.90;;;;;;5078180;28;20561;-85
2023/05/18 04:43:08;;;;;;;5.97;1.10;;;17.70;99.90;;;;;;5077224;28;20230;-85
2023/05/18 04:45:41;;;;;;;3.85;0.60;;;17.70;99.90;;;;;;5079828;28;20266;-86
2023/05/18 04:48:18;;;;;;;2.65;0.90;;;17.70;99.90;;;;;;5073701;28;20227;-86
2023/05/18 04:50:53;;;;;;;2.08;0.70;;;17.70;99.90;;;;;;5068612;28;20223;-86
2023/05/18 04:53:26;;;;;;;5.18;0.77;;;17.80;99.90;;;;;;5074433;28;20219;-86
2023/05/18 04:55:57;;;;;;;3.33;1.08;;;17.90;99.90;;;;;;5073428;28;20208;-86
2023/05/18 04:58:29;;;;;;;2.80;0.70;;;17.80;99.90;;;;;;5075773;28;20654;-85
2023/05/18 05:01:01;;;;;;;2.60;0.63;;;17.70;99.90;;;;;;5077007;28;20570;-86
2023/05/18 05:03:35;;;;;;;0.85;0.55;;;17.70;99.90;;;;;;5073560;28;20188;-86
2023/05/18 05:06:06;;;;;;;2.85;0.90;;;17.70;99.90;;;;;;5073425;28;20210;-85
2023/05/18 05:08:38;;;;;;;2.97;0.70;;;17.80;99.90;;;;;;5072371;28;20200;-85
2023/05/18 05:11:10;;;;;;;2.03;1.00;;;17.80;99.90;;;;;;5061082;28;20610;-87
2023/05/18 05:13:41;;;;;;;5.60;0.90;;;17.80;99.90;;;;;;5074608;28;20222;-85
2023/05/18 05:16:12;;;;;;;2.00;1.02;;;17.70;99.90;;;;;;5074050;28;20202;-86
2023/05/18 05:18:45;;;;;;;2.85;0.82;;;17.70;99.90;;;;;;5069853;28;20221;-85
2023/05/18 05:21:16;;;;;;;1.95;0.63;;;17.70;99.90;;;;;;5078060;28;20199;-85
2023/05/18 05:23:48;;;;;;;2.00;0.75;;;17.60;99.90;;;;;;5076386;28;20551;-85
2023/05/18 05:26:20;;;;;;;4.07;1.00;;;17.70;99.90;;;;;;5075474;28;20227;-85
2023/05/18 05:28:51;;;;;;;3.88;0.95;;;17.60;99.90;;;;;;5075733;28;20231;-86
2023/05/18 05:31:22;;;;;;;3.17;0.98;;;17.70;99.90;;;;;;5072863;28;20204;-86
2023/05/18 05:33:57;;;;;;;4.07;0.80;;;17.70;99.90;;;;;;5074448;28;20211;-87
2023/05/18 05:36:30;;;;;;;4.28;0.90;;;17.70;99.90;;;;;;5073496;28;20195;-87
2023/05/18 05:39:03;;;;;;;2.65;0.70;;;17.80;99.90;;;;;;5074624;28;20265;-87
2023/05/18 05:41:35;;;;;;;3.78;0.75;;;17.80;99.90;;;;;;5056836;28;20195;-86
2023/05/18 05:44:06;;;;;;;4.95;1.15;;;17.80;99.90;;;;;;5070224;28;20196;-86
2023/05/18 05:46:37;;;;;;;2.47;0.82;;;18.00;99.90;;;;;;5065137;28;20198;-84
2023/05/18 05:49:13;;;;;;;3.03;0.85;;;18.00;99.90;;;;;;5074779;28;20194;-87
2023/05/18 05:51:44;;;;;;;4.10;0.98;;;17.90;99.90;;;;;;5072685;28;20226;-87
2023/05/18 05:54:17;;;;;;;2.33;0.80;;;18.00;99.90;;;;;;5065439;28;20218;-86
2023/05/18 05:56:51;;;;;;;4.72;0.85;;;17.90;99.90;;;;;;5061633;28;20192;-86
2023/05/18 05:59:23;;;;;;;2.70;0.68;;;17.80;99.90;;;;;;5073303;28;20215;-86
2023/05/18 06:01:55;;;;;;;3.75;0.73;;;17.80;99.90;;;;;;5068054;28;20191;-85
2023/05/18 06:04:30;;;;;;;3.20;0.80;;;17.70;99.90;;;;;;5072395;28;21320;-86
2023/05/18 06:07:03;;;;;;;7.03;0.93;;;17.60;99.90;;;;;;5074407;28;20196;-85
2023/05/18 06:09:34;;;;;;;3.60;0.80;;;17.60;99.90;;;;;;5071802;28;20655;-86
2023/05/18 06:12:06;;;;;;;2.53;0.90;;;17.60;99.90;;;;;;5071539;28;20240;-83
2023/05/18 06:14:37;;;;;;;2.58;0.80;;;17.60;99.90;;;;;;5070883;28;20204;-86
2023/05/18 06:17:08;;;;;;;2.42;0.60;;;17.50;99.90;;;;;;5072155;28;20681;-86
2023/05/18 06:19:41;;;;;;;5.88;0.88;;;17.40;99.90;;;;;;5071352;28;20196;-86
2023/05/18 06:22:13;;;;;;;4.63;0.70;;;17.40;99.90;;;;;;5071833;28;20207;-86
2023/05/18 06:24:44;;;;;;;6.45;0.73;;;17.30;99.90;;;;;;5071424;28;20200;-86
2023/05/18 06:27:15;;;;;;;4.75;0.68;;;17.20;99.90;;;;;;5067438;28;20224;-86
2023/05/18 06:29:47;;;;;;;3.97;0.77;;;17.10;99.90;;;;;;5071251;28;20196;-86
2023/05/18 06:32:27;;;;;;;3.30;0.57;;;17.10;99.90;;;;;;5071982;28;20199;-87
2023/05/18 06:35:02;;;;;;;2.90;0.55;;;17.00;99.90;;;;;;5072692;28;20318;-86
2023/05/18 06:37:33;;;;;;;3.85;0.73;;;17.10;99.90;;;;;;5070228;28;20226;-86
2023/05/18 06:40:06;;;;;;;2.80;0.75;;;17.00;99.90;;;;;;5068471;28;20204;-87
2023/05/18 06:42:38;;;;;;;1.10;0.50;;;17.00;99.90;;;;;;5069875;28;20204;-85
2023/05/18 06:45:11;;;;;;;3.35;1.00;;;17.00;99.90;;;;;;5051715;28;20184;-86
2023/05/18 06:47:43;;;;;;;3.60;0.93;;;16.90;99.90;;;;;;5065874;28;20192;-86
2023/05/18 06:50:18;;;;;;;2.38;0.60;;;16.90;99.90;;;;;;5073430;28;20195;-86
2023/05/18 06:52:52;;;;;;;3.28;0.70;;;16.90;99.90;;;;;;5073573;28;20249;-86
2023/05/18 06:55:23;;;;;;;3.42;0.80;;;16.80;99.90;;;;;;5073574;28;20226;-85
2023/05/18 06:57:57;;;;;;;2.35;0.70;;;16.80;99.90;;;;;;5069773;28;20206;-87
2023/05/18 07:00:29;;;;;;;3.13;0.70;;;16.70;99.90;;;;;;5068671;28;20196;-88
2023/05/18 07:03:00;;;;;;;4.00;0.90;;;16.60;99.90;;;;;;5066625;28;20198;-88
2023/05/18 07:05:33;;;;;;;3.40;0.90;;;16.60;99.90;;;;;;5062550;28;20682;-87
2023/05/18 07:08:05;;;;;;;2.17;0.80;;;16.60;99.90;;;;;;5056348;28;20184;-88
2023/05/18 07:10:37;;;;;;;2.58;0.60;;;16.50;99.90;;;;;;5065867;28;20610;-89
2023/05/18 07:13:09;;;;;;;5.45;0.80;;;16.50;99.90;;;;;;5077012;28;20317;-88
2023/05/18 07:15:40;;;;;;;3.05;0.80;;;16.50;99.90;;;;;;5076270;28;20705;-89
2023/05/18 07:18:13;;;;;;;2.53;0.80;;;16.50;99.90;;;;;;5078454;28;20188;-89
2023/05/18 07:20:47;;;;;;;4.20;0.80;;;16.50;99.90;;;;;;5077428;28;20193;-88
2023/05/18 07:23:18;;;;;;;4.45;0.82;;;16.50;99.90;;;;;;5080546;28;20227;-85
2023/05/18 07:25:51;;;;;;;5.10;0.90;;;16.50;99.90;;;;;;5074845;28;20192;-87
2023/05/18 07:28:24;;;;;;;3.47;0.90;;;16.50;99.90;;;;;;5077364;28;20200;-87
2023/05/18 07:31:00;;;;;;;3.10;0.90;;;16.50;99.90;;;;;;5078076;28;20192;-88
2023/05/18 07:33:31;;;;;;;4.95;1.27;;;16.50;99.90;;;;;;5075671;28;20677;-85
2023/05/18 07:36:06;;;;;;;2.72;1.13;;;16.50;99.90;;;;;;5059478;28;20239;-86
2023/05/18 07:38:39;;;;;;;3.92;2.05;;;16.50;99.90;;;;;;5070820;28;20673;-86
2023/05/18 07:41:11;;;;;;;5.15;2.00;;;16.50;99.90;;;;;;5077201;28;20199;-86
2023/05/18 07:43:42;;;;;;;7.28;2.22;;;16.50;99.90;;;;;;5078431;28;20195;-89
2023/05/18 07:46:13;;;;;;;7.40;2.50;;;16.50;99.90;;;;;;5079867;28;20207;-88
2023/05/18 07:48:44;;;;;;;4.68;2.00;;;16.50;99.90;;;;;;5080206;28;20211;-87
2023/05/18 07:51:20;;;;;;;6.55;1.73;;;16.50;99.90;;;;;;5059904;28;20254;-87
2023/05/18 07:53:53;;;;;;;3.80;1.02;;;16.50;99.90;;;;;;5072415;28;20227;-88
2023/05/18 07:56:24;;;;;;;5.72;1.23;;;16.50;99.90;;;;;;5076081;28;20612;-89
2023/05/18 07:58:55;;;;;;;3.42;1.10;;;16.50;99.90;;;;;;5076561;28;20191;-87
2023/05/18 08:01:29;;;;;;;4.72;1.30;;;16.50;99.90;;;;;;5074027;28;20192;-87
2023/05/18 08:04:00;;;;;;;3.85;1.08;;;16.50;99.90;;;;;;5064706;28;20629;-88
2023/05/18 08:06:34;;;;;;;3.25;1.23;;;16.40;99.90;;;;;;5075138;28;20659;-88
2023/05/18 08:09:09;;;;;;;2.47;1.20;;;16.40;99.90;;;;;;5061529;28;20207;-86
2023/05/18 08:11:41;;;;;;;5.00;1.17;;;16.40;99.90;;;;;;5073477;28;20219;-88
2023/05/18 08:14:14;;;;;;;6.97;1.10;;;16.40;99.90;;;;;;5069793;28;20193;-89
2023/05/18 08:16:46;;;;;;;5.50;1.27;;;16.40;99.90;;;;;;5074242;28;20211;-88
2023/05/18 08:19:19;;;;;;;3.95;1.00;;;16.40;99.90;;;;;;5074838;28;20199;-88
2023/05/18 08:21:54;;;;;;;3.95;1.20;;;16.40;99.90;;;;;;5077515;28;20709;-88
2023/05/18 08:24:25;;;;;;;5.50;1.92;;;16.40;99.90;;;;;;5076706;28;20199;-88
2023/05/18 08:26:59;;;;;;;5.10;1.35;;;16.40;99.90;;;;;;5074172;28;20702;-86
2023/05/18 08:29:31;;;;;;;8.02;1.67;;;16.30;99.90;;;;;;5054878;28;20590;-87
2023/05/18 08:32:02;;;;;;;7.13;1.30;;;16.30;99.90;;;;;;5066718;28;20271;-86
2023/05/18 08:34:33;;;;;;;6.15;1.23;;;16.30;99.90;;;;;;5073975;28;20192;-87
2023/05/18 08:37:08;;;;;;;4.65;1.25;;;16.30;99.90;;;;;;5075079;28;20234;-87
2023/05/18 08:39:44;;;;;;;8.88;3.25;;;16.30;99.90;;;;;;5075022;28;20195;-88
2023/05/18 08:42:24;;;;;;;8.80;2.78;;;16.30;99.90;;;;;;5076856;28;20234;-87
2023/05/18 08:45:07;;;;;;;15.27;4.45;;;16.30;99.90;;;;;;5074894;28;20187;-87
2023/05/18 08:47:40;;;;;;;6.63;2.58;;;16.40;99.90;;;;;;5074628;28;20199;-88
2023/05/18 08:50:14;;;;;;;9.85;2.85;;;16.30;99.90;;;;;;5076099;28;20249;-87
2023/05/18 08:52:53;;;;;;;8.15;2.60;;;16.30;99.90;;;;;;5069965;28;20208;-87
2023/05/18 08:55:27;;;;;;;8.77;2.33;;;16.30;99.90;;;;;;5067858;28;20219;-90
2023/05/18 08:58:03;;;;;;;10.05;2.53;;;16.30;99.90;;;;;;5076811;28;20192;-88
2023/05/18 09:00:36;;;;;;;6.30;1.80;;;16.20;99.90;;;;;;5075729;28;20199;-86
2023/05/18 09:03:09;;;;;;;11.45;2.13;;;16.20;99.90;;;;;;5073420;28;20564;-88
2023/05/18 09:05:43;;;;;;;5.30;1.70;;;16.30;99.90;;;;;;5076851;28;20184;-88
2023/05/18 09:08:20;;;;;;;5.47;1.40;;;16.20;99.90;;;;;;5074540;28;20203;-88
2023/05/18 09:10:54;;;;;;;5.60;1.85;;;16.30;99.90;;;;;;5072609;28;20342;-89
2023/05/18 09:13:25;;;;;;;7.40;1.70;;;16.30;99.90;;;;;;5073715;28;20281;-89
2023/05/18 09:15:57;;;;;;;5.13;1.50;;;16.30;99.90;;;;;;5078769;28;20207;-90
2023/05/18 09:18:31;;;;;;;5.85;1.40;;;16.30;99.90;;;;;;5074976;28;20195;-89
2023/05/18 09:21:05;;;;;;;4.07;1.35;;;16.30;99.90;;;;;;5077748;28;20746;-89
2023/05/18 09:23:43;;;;;;;5.20;1.10;;;16.30;99.90;;;;;;5075721;28;20188;-87
2023/05/18 09:26:14;;;;;;;6.20;1.75;;;16.30;99.90;;;;;;5075673;28;20227;-89
2023/05/18 09:28:50;;;;;;;7.20;1.70;;;16.20;99.90;;;;;;5074135;28;20228;-90
2023/05/18 09:31:28;;;;;;;5.45;1.55;;;16.30;99.90;;;;;;5075732;28;20206;-89
2023/05/18 09:34:05;;;;;;;4.07;1.30;;;16.20;99.90;;;;;;5075948;28;20214;-91
2023/05/18 09:36:38;;;;;;;6.22;1.65;;;16.10;99.90;;;;;;5077269;28;20289;-90
2023/05/18 09:39:22;;;;;;;4.57;1.20;;;16.00;99.90;;;;;;5077938;28;20234;-92
2023/05/18 09:42:02;;;;;;;3.80;1.05;;;15.90;99.90;;;;;;5076185;28;20233;-92
2023/05/18 09:44:41;;;;;;;3.30;0.65;;;15.90;99.90;;;;;;5081151;28;20225;-92
2023/05/18 09:47:14;;;;;;;5.32;0.90;;;15.70;99.90;;;;;;5075219;28;20666;-93
2023/05/18 09:49:49;;;;;;;4.63;1.23;;;15.70;99.90;;;;;;5073671;28;20192;-91
2023/05/18 09:52:21;;;;;;;3.10;1.00;;;15.70;99.90;;;;;;5075284;28;20191;-91
2023/05/18 09:55:04;;;;;;;2.67;0.80;;;15.60;99.90;;;;;;5076859;28;20216;-93
2023/05/18 09:57:41;;;;;;;4.75;0.90;;;15.60;99.90;;;;;;5076480;28;20249;-90
2023/05/18 10:00:16;;;;;;;2.00;0.90;;;15.50;99.90;;;;;;5073339;28;20225;-88
2023/05/18 10:02:51;;;;;;;3.25;1.10;;;15.50;99.90;;;;;;5070636;28;20199;-78
2023/05/18 10:05:25;;;;;;;2.95;0.80;;;15.50;99.90;;;;;;5070888;28;20214;-76
2023/05/18 10:07:57;;;;;;;2.50;1.00;;;15.50;99.90;;;;;;5070934;28;20196;-77
2023/05/18 10:10:31;;;;;;;4.30;0.90;;;15.50;99.90;;;;;;5069395;28;20262;-76
2023/05/18 10:13:03;;;;;;;2.80;0.98;;;15.60;99.90;;;;;;5071309;28;20278;-77
2023/05/18 10:15:34;;;;;;;4.10;1.00;;;15.60;99.90;;;;;;5069166;28;20210;-76
2023/05/18 10:18:09;;;;;;;2.85;1.08;;;15.60;99.90;;;;;;5068077;28;20214;-90
2023/05/18 10:20:42;;;;;;;5.93;1.17;;;15.50;99.90;;;;;;5058673;28;20262;-89
2023/05/18 10:23:17;;;;;;;2.45;0.82;;;15.50;99.90;;;;;;5072694;28;20200;-90
2023/05/18 10:25:58;;;;;;;2.70;0.73;;;15.50;99.90;;;;;;5073096;28;20199;-89
2023/05/18 10:28:34;;;;;;;2.53;0.93;;;15.50;99.90;;;;;;5074282;28;20573;-90
2023/05/18 10:31:08;;;;;;;3.63;0.80;;;15.50;99.90;;;;;;5072821;28;20208;-90
2023/05/18 10:33:41;;;;;;;3.22;0.90;;;15.50;99.90;;;;;;5074439;28;20195;-92
2023/05/18 10:36:14;;;;;;;2.55;1.10;;;15.60;99.90;;;;;;5072016;28;20261;-88
2023/05/18 10:38:50;;;;;;;4.03;0.82;;;15.60;99.90;;;;;;5073852;28;20604;-88
2023/05/18 10:41:24;;;;;;;3.05;0.90;;;15.60;99.90;;;;;;5073442;28;20662;-88
2023/05/18 10:44:02;;;;;;;5.07;1.20;;;15.50;99.90;;;;;;5072110;28;20204;-89
2023/05/18 10:46:35;;;;;;;4.53;0.90;;;15.50;99.90;;;;;;5068723;28;20269;-88
2023/05/18 10:49:12;;;;;;;3.22;0.90;;;15.40;99.90;;;;;;5073841;28;20279;-88
2023/05/18 10:51:46;;;;;;;3.65;1.02;;;15.40;99.90;;;;;;5074833;28;20678;-90
2023/05/18 10:54:18;;;;;;;4.10;0.93;;;15.30;99.90;;;;;;5068443;28;20215;-88
2023/05/18 10:56:56;;;;;;;2.25;0.98;;;15.30;99.90;;;;;;5063486;28;20280;-87
2023/05/18 10:59:33;;;;;;;1.95;0.80;;;15.30;99.90;;;;;;5074770;28;20180;-88
2023/05/18 11:02:17;;;;;;;6.68;1.17;;;15.30;99.90;;;;;;5062410;28;20193;-89
2023/05/18 11:04:49;;;;;;;6.60;2.20;;;15.40;99.90;;;;;;5065269;28;20201;-89
2023/05/18 11:07:45;;;;;;;2.22;1.40;;;15.40;99.90;;;;;;5061451;28;20192;-87
2023/05/18 11:13:12;;;;;;;5.03;1.42;;;15.30;99.90;;;;;;5069537;28;20208;-88
2023/05/18 11:16:12;;;;;;;3.00;0.95;;;15.30;99.90;;;;;;5082639;28;20286;-88
2023/05/18 11:18:50;;;;;;;4.63;1.30;;;15.30;99.90;;;;;;5070009;28;20751;-86
2023/05/18 11:21:54;;;;;;;1.90;0.98;;;15.40;99.90;;;;;;5064251;28;20196;-85
2023/05/18 11:24:54;;;;;;;3.60;1.33;;;15.30;99.90;;;;;;5079971;28;20641;-89
2023/05/18 11:27:35;;;;;;;2.28;1.00;;;15.30;99.90;;;;;;5082321;28;20682;-88
2023/05/18 11:30:36;;;;;;;2.30;1.10;;;15.30;99.90;;;;;;5060009;28;20193;-89
2023/05/18 11:33:43;;;;;;;2.65;1.15;;;15.30;99.90;;;;;;5067575;28;20208;-88
2023/05/18 11:37:11;;;;;;;3.70;1.65;;;15.30;99.90;;;;;;5082659;28;20234;-86
2023/05/18 11:39:59;;;;;;;5.05;1.45;;;15.30;99.90;;;;;;5060245;28;20636;-88
2023/05/18 11:42:38;;;;;;;3.63;1.38;;;15.30;99.90;;;;;;5066320;28;20202;-87
2023/05/18 11:45:17;;;;;;;4.90;1.60;;;15.20;99.90;;;;;;5077652;28;20260;-87
2023/05/18 11:47:50;;;;;;;3.88;1.40;;;15.10;99.90;;;;;;5072876;28;20650;-87
2023/05/18 11:50:35;;;;;;;4.05;1.40;;;15.10;99.90;;;;;;5082095;28;20195;-85
2023/05/18 11:53:29;;;;;;;5.63;1.20;;;15.00;99.90;;;;;;5084621;28;20259;-87
2023/05/18 11:56:05;;;;;;;4.03;1.30;;;14.90;99.90;;;;;;5082428;28;20199;-85
2023/05/18 11:58:48;;;;;;;6.45;1.30;;;14.80;99.90;;;;;;5079537;28;20203;-89
2023/05/18 12:01:28;;;;;;;3.30;1.05;;;14.80;99.90;;;;;;5079872;28;20204;-90
2023/05/18 12:04:05;;;;;;;3.40;1.13;;;14.80;99.90;;;;;;5081105;28;20195;-90
2023/05/18 12:06:45;;;;;;;4.97;1.42;;;14.70;99.90;;;;;;5081068;28;20196;-89
2023/05/18 12:09:21;;;;;;;4.88;1.38;;;14.70;99.90;;;;;;5078799;28;20196;-91
2023/05/18 12:11:59;;;;;;;9.32;1.48;;;14.70;99.90;;;;;;5066410;28;20196;-91
2023/05/18 12:14:37;;;;;;;3.13;1.13;;;14.70;99.90;;;;;;5082586;28;20203;-88
2023/05/18 12:17:10;;;;;;;6.15;1.40;;;14.60;99.90;;;;;;5079885;28;20226;-88
2023/05/18 12:19:48;;;;;;;7.03;1.60;;;14.60;99.90;;;;;;5081818;28;20200;-88
2023/05/18 12:22:36;;;;;;;4.43;1.63;;;14.60;99.90;;;;;;5083827;28;20249;-88
2023/05/18 12:25:08;;;;;;;4.43;1.55;;;14.50;99.90;;;;;;5078731;28;20578;-85
2023/05/18 12:27:50;;;;;;;4.63;1.60;;;14.60;99.90;;;;;;5078284;28;20236;-86
2023/05/18 12:30:24;;;;;;;5.32;1.88;;;14.50;99.90;;;;;;5079160;28;20659;-89
2023/05/18 12:33:00;;;;;;;5.05;1.85;;;14.40;99.90;;;;;;5081579;28;20207;-89
2023/05/18 12:35:34;;;;;;;8.02;2.95;;;14.40;99.90;;;;;;5082026;28;20557;-89
2023/05/18 12:38:15;;;;;;;5.78;3.05;;;14.30;99.90;;;;;;5079223;28;20314;-89
2023/05/18 12:40:52;;;;;;;7.25;2.63;;;14.20;99.90;;;;;;5081219;28;20204;-89
2023/05/18 12:43:27;;;;;;;8.63;2.17;;;14.20;99.90;;;;;;5081248;28;20202;-89
2023/05/18 12:46:04;;;;;;;5.03;1.95;;;14.00;99.90;;;;;;5077427;28;20262;-88
2023/05/18 12:48:47;;;;;;;5.45;1.75;;;14.00;99.90;;;;;;5073972;28;20203;-89
2023/05/18 12:51:31;;;;;;;4.03;1.80;;;13.90;99.90;;;;;;5083490;28;20204;-89
2023/05/18 12:54:08;;;;;;;3.72;1.85;;;13.90;99.90;;;;;;5067501;28;20224;-88
2023/05/18 12:56:59;;;;;;;1.50;1.13;;;13.90;99.90;;;;;;5060123;28;20209;-88
2023/05/18 12:59:31;;;;;;;5.18;1.42;;;13.90;99.90;;;;;;5078850;28;20562;-87
2023/05/18 13:02:03;;;;;;;2.80;1.13;;;14.00;99.90;;;;;;5074227;28;20184;-85
2023/05/18 13:04:37;;;;;;;2.05;1.00;;;14.00;99.90;;;;;;5072722;28;20602;-88
2023/05/18 13:07:10;;;;;;;3.55;1.20;;;13.90;99.90;;;;;;5074924;28;20199;-88
2023/05/18 13:09:48;;;;;;;1.67;1.13;;;13.80;99.90;;;;;;5075034;28;20196;-88
2023/05/18 13:12:19;;;;;;;1.50;1.00;;;13.70;99.90;;;;;;5073172;28;20243;-87
2023/05/18 13:14:51;;;;;;;2.63;0.80;;;13.80;99.90;;;;;;5072446;28;20192;-88
2023/05/18 13:17:25;;;;;;;1.55;1.10;;;13.70;99.90;;;;;;5074555;28;20222;-87
2023/05/18 13:20:00;;;;;;;2.05;1.00;;;13.70;99.90;;;;;;5074676;28;20207;-88
2023/05/18 13:22:31;;;;;;;1.23;1.00;;;13.70;99.90;;;;;;5073305;28;20566;-87
2023/05/18 13:25:06;;;;;;;2.65;1.30;;;13.80;99.90;;;;;;5054434;28;20195;-88
2023/05/18 13:27:37;;;;;;;5.78;1.50;;;13.70;99.90;;;;;;5066362;28;20265;-87
2023/05/18 13:30:09;;;;;;;2.53;1.50;;;13.60;99.90;;;;;;5073911;28;20202;-88
2023/05/18 13:32:41;;;;;;;2.67;1.38;;;13.60;99.90;;;;;;5073675;28;20204;-88